Terminal Aerodrome Forecast
Issued by NWS Cleveland, OH

Home | Current Version | Previous Version | Text Only | Print | Product List | Glossary On
Versions: 1 2 3 4 5 6 7 8 9 10 11 12 13 14 15 16 17 18 19 20 21 22 23 24 25 26 27 28 29 30 31 32 33 34 35 36 37 38 39 40 41 42 43 44 45 46 47 48 49 50
876
FTUS41 KCLE 212018 AAB
TAFCLE
TAF AMD
KCLE 212018Z 2120/2224 33006KT 2SM BR BKN003 OVC015
     FM212300 33007KT 6SM BR SCT006 OVC015
     FM220100 30004KT P6SM BKN025
     FM220900 27011KT P6SM VCSH OVC015
     FM221100 29013KT 5SM -SHSNRA OVC020
     FM221300 30020G30KT 3SM -SHSN BR OVC015
     FM222000 32015G25KT 6SM BR OVC030=

USA.gov is the U.S. government's official web portal to all federal, state and local government web resources and services.